sensor_id;sensor_type;location;lat;lon;timestamp;temperature;humidity
41694;DHT22;27377;50.666;9.150;2023-06-24T00:11:05;14.10;99.90
41694;DHT22;27377;50.666;9.150;2023-06-24T00:17:42;14.00;99.90
41694;DHT22;27377;50.666;9.150;2023-06-24T00:21:37;14.00;99.90
41694;DHT22;27377;50.666;9.150;2023-06-24T00:42:14;13.70;99.90
41694;DHT22;27377;50.666;9.150;2023-06-24T00:45:26;13.70;99.90
41694;DHT22;27377;50.666;9.150;2023-06-24T01:09:49;13.50;99.90
41694;DHT22;27377;50.666;9.150;2023-06-24T02:53:19;12.30;99.90
41694;DHT22;27377;50.666;9.150;2023-06-24T02:55:45;12.30;99.90
41694;DHT22;27377;50.666;9.150;2023-06-24T02:58:11;12.30;99.90
41694;DHT22;27377;50.666;9.150;2023-06-24T03:00:37;12.20;99.90
41694;DHT22;27377;50.666;9.150;2023-06-24T03:03:04;12.10;99.90
41694;DHT22;27377;50.666;9.150;2023-06-24T03:05:34;12.00;99.90
41694;DHT22;27377;50.666;9.150;2023-06-24T03:08:00;12.00;99.90
41694;DHT22;27377;50.666;9.150;2023-06-24T03:10:32;12.10;99.90
41694;DHT22;27377;50.666;9.150;2023-06-24T03:12:57;12.10;99.90
41694;DHT22;27377;50.666;9.150;2023-06-24T03:15:26;12.10;99.90
41694;DHT22;27377;50.666;9.150;2023-06-24T03:17:53;12.10;99.90
41694;DHT22;27377;50.666;9.150;2023-06-24T03:20:19;12.10;99.90
41694;DHT22;27377;50.666;9.150;2023-06-24T03:22:45;12.10;99.90
41694;DHT22;27377;50.666;9.150;2023-06-24T03:25:11;12.00;99.90
41694;DHT22;27377;50.666;9.150;2023-06-24T03:27:36;11.90;99.90
41694;DHT22;27377;50.666;9.150;2023-06-24T03:30:02;11.90;99.90
41694;DHT22;27377;50.666;9.150;2023-06-24T03:32:28;11.90;99.90
41694;DHT22;27377;50.666;9.150;2023-06-24T03:34:56;11.90;99.90
41694;DHT22;27377;50.666;9.150;2023-06-24T03:37:22;11.90;99.90
41694;DHT22;27377;50.666;9.150;2023-06-24T03:39:48;11.90;99.90
41694;DHT22;27377;50.666;9.150;2023-06-24T03:42:14;11.90;99.90
41694;DHT22;27377;50.666;9.150;2023-06-24T03:44:43;11.80;99.90
41694;DHT22;27377;50.666;9.150;2023-06-24T03:47:11;11.80;99.90
41694;DHT22;27377;50.666;9.150;2023-06-24T03:49:37;11.80;99.90
41694;DHT22;27377;50.666;9.150;2023-06-24T03:52:03;11.90;99.90
41694;DHT22;27377;50.666;9.150;2023-06-24T03:54:29;11.90;99.90
41694;DHT22;27377;50.666;9.150;2023-06-24T03:56:54;11.90;99.90
41694;DHT22;27377;50.666;9.150;2023-06-24T03:59:20;11.80;99.90
41694;DHT22;27377;50.666;9.150;2023-06-24T04:01:46;11.80;99.90
41694;DHT22;27377;50.666;9.150;2023-06-24T04:04:15;11.80;99.90
41694;DHT22;27377;50.666;9.150;2023-06-24T04:06:41;11.80;99.90
41694;DHT22;27377;50.666;9.150;2023-06-24T04:09:06;11.80;99.90
41694;DHT22;27377;50.666;9.150;2023-06-24T04:11:33;11.80;99.90
41694;DHT22;27377;50.666;9.150;2023-06-24T04:13:59;11.80;99.90
41694;DHT22;27377;50.666;9.150;2023-06-24T04:16:25;11.80;99.90
41694;DHT22;27377;50.666;9.150;2023-06-24T04:18:50;11.80;99.90
41694;DHT22;27377;50.666;9.150;2023-06-24T04:21:16;11.90;99.90
41694;DHT22;27377;50.666;9.150;2023-06-24T04:23:45;11.90;99.90
41694;DHT22;27377;50.666;9.150;2023-06-24T04:26:10;12.00;99.90
41694;DHT22;27377;50.666;9.150;2023-06-24T04:28:38;12.10;99.90
41694;DHT22;27377;50.666;9.150;2023-06-24T04:31:05;12.10;99.90
41694;DHT22;27377;50.666;9.150;2023-06-24T04:33:34;12.20;99.90
41694;DHT22;27377;50.666;9.150;2023-06-24T04:36:06;12.20;99.90
41694;DHT22;27377;50.666;9.150;2023-06-24T04:38:31;12.20;99.90
41694;DHT22;27377;50.666;9.150;2023-06-24T04:40:57;12.10;99.90
41694;DHT22;27377;50.666;9.150;2023-06-24T04:43:25;12.20;99.90
41694;DHT22;27377;50.666;9.150;2023-06-24T04:45:50;12.30;99.90
41694;DHT22;27377;50.666;9.150;2023-06-24T04:48:16;12.30;99.90
41694;DHT22;27377;50.666;9.150;2023-06-24T04:50:42;12.30;99.90
41694;DHT22;27377;50.666;9.150;2023-06-24T04:53:15;12.40;99.90
41694;DHT22;27377;50.666;9.150;2023-06-24T04:55:41;12.50;99.90
41694;DHT22;27377;50.666;9.150;2023-06-24T04:58:06;12.50;99.90
41694;DHT22;27377;50.666;9.150;2023-06-24T05:00:32;12.50;99.90
41694;DHT22;27377;50.666;9.150;2023-06-24T05:02:58;12.60;99.90
41694;DHT22;27377;50.666;9.150;2023-06-24T05:05:24;12.60;99.90
41694;DHT22;27377;50.666;9.150;2023-06-24T05:07:49;12.70;99.90
41694;DHT22;27377;50.666;9.150;2023-06-24T07:12:17;16.90;99.90
41694;DHT22;27377;50.666;9.150;2023-06-24T07:14:42;17.00;99.90
41694;DHT22;27377;50.666;9.150;2023-06-24T07:17:08;17.00;99.90
41694;DHT22;27377;50.666;9.150;2023-06-24T07:19:34;17.10;99.90
41694;DHT22;27377;50.666;9.150;2023-06-24T07:25:17;17.30;99.90
41694;DHT22;27377;50.666;9.150;2023-06-24T07:27:43;17.30;99.90
41694;DHT22;27377;50.666;9.150;2023-06-24T07:30:08;17.30;99.90
41694;DHT22;27377;50.666;9.150;2023-06-24T07:32:34;17.40;99.90
41694;DHT22;27377;50.666;9.150;2023-06-24T07:35:00;17.40;99.90
41694;DHT22;27377;50.666;9.150;2023-06-24T07:37:25;17.40;99.90
41694;DHT22;27377;50.666;9.150;2023-06-24T07:39:51;17.50;99.90
41694;DHT22;27377;50.666;9.150;2023-06-24T07:42:17;17.60;99.90
41694;DHT22;27377;50.666;9.150;2023-06-24T07:44:48;17.60;99.90
41694;DHT22;27377;50.666;9.150;2023-06-24T07:47:16;17.60;99.90
41694;DHT22;27377;50.666;9.150;2023-06-24T07:49:41;17.70;99.90
41694;DHT22;27377;50.666;9.150;2023-06-24T07:52:07;17.70;99.90
41694;DHT22;27377;50.666;9.150;2023-06-24T07:54:33;17.70;99.90
41694;DHT22;27377;50.666;9.150;2023-06-24T07:56:59;17.70;99.90
41694;DHT22;27377;50.666;9.150;2023-06-24T07:59:25;17.80;99.90
41694;DHT22;27377;50.666;9.150;2023-06-24T08:01:50;17.80;99.90
41694;DHT22;27377;50.666;9.150;2023-06-24T08:04:16;17.90;99.90
41694;DHT22;27377;50.666;9.150;2023-06-24T08:06:41;17.90;99.90
41694;DHT22;27377;50.666;9.150;2023-06-24T08:09:07;18.00;99.90
41694;DHT22;27377;50.666;9.150;2023-06-24T08:11:33;18.00;99.90
41694;DHT22;27377;50.666;9.150;2023-06-24T08:13:59;18.10;99.90
41694;DHT22;27377;50.666;9.150;2023-06-24T08:16:25;18.10;99.90
41694;DHT22;27377;50.666;9.150;2023-06-24T08:18:50;18.20;99.90
41694;DHT22;27377;50.666;9.150;2023-06-24T08:21:16;18.20;99.90
41694;DHT22;27377;50.666;9.150;2023-06-24T08:23:42;18.20;99.90
41694;DHT22;27377;50.666;9.150;2023-06-24T08:26:07;18.20;99.90
41694;DHT22;27377;50.666;9.150;2023-06-24T08:28:33;18.30;99.90
41694;DHT22;27377;50.666;9.150;2023-06-24T08:30:59;18.30;99.90
41694;DHT22;27377;50.666;9.150;2023-06-24T08:33:24;18.30;99.90
41694;DHT22;27377;50.666;9.150;2023-06-24T08:35:50;18.30;99.90
41694;DHT22;27377;50.666;9.150;2023-06-24T08:38:16;18.40;99.90
41694;DHT22;27377;50.666;9.150;2023-06-24T08:40:42;18.40;99.90
41694;DHT22;27377;50.666;9.150;2023-06-24T08:43:09;18.40;99.90
41694;DHT22;27377;50.666;9.150;2023-06-24T08:45:37;18.50;99.90
41694;DHT22;27377;50.666;9.150;2023-06-24T08:48:04;18.50;99.90
41694;DHT22;27377;50.666;9.150;2023-06-24T08:50:36;18.60;99.90
41694;DHT22;27377;50.666;9.150;2023-06-24T08:53:07;18.60;99.90
41694;DHT22;27377;50.666;9.150;2023-06-24T08:55:36;18.60;99.90
41694;DHT22;27377;50.666;9.150;2023-06-24T08:58:02;18.70;99.90
41694;DHT22;27377;50.666;9.150;2023-06-24T09:00:28;18.70;99.90
41694;DHT22;27377;50.666;9.150;2023-06-24T09:02:54;18.70;99.90
41694;DHT22;27377;50.666;9.150;2023-06-24T09:05:19;18.80;99.90
41694;DHT22;27377;50.666;9.150;2023-06-24T09:07:45;18.80;99.90
41694;DHT22;27377;50.666;9.150;2023-06-24T09:10:10;18.90;99.90
41694;DHT22;27377;50.666;9.150;2023-06-24T09:12:54;18.90;99.90
41694;DHT22;27377;50.666;9.150;2023-06-24T09:15:23;18.90;99.90
41694;DHT22;27377;50.666;9.150;2023-06-24T09:17:48;18.90;99.90
41694;DHT22;27377;50.666;9.150;2023-06-24T09:20:14;19.00;99.90
41694;DHT22;27377;50.666;9.150;2023-06-24T09:22:43;19.00;99.90
41694;DHT22;27377;50.666;9.150;2023-06-24T09:25:09;19.00;99.90
41694;DHT22;27377;50.666;9.150;2023-06-24T09:27:47;19.00;99.90
41694;DHT22;27377;50.666;9.150;2023-06-24T09:30:20;19.10;99.90
41694;DHT22;27377;50.666;9.150;2023-06-24T09:32:53;19.10;99.90
41694;DHT22;27377;50.666;9.150;2023-06-24T09:35:24;19.20;99.90
41694;DHT22;27377;50.666;9.150;2023-06-24T09:37:56;19.20;99.90
41694;DHT22;27377;50.666;9.150;2023-06-24T09:40:23;19.20;99.90
41694;DHT22;27377;50.666;9.150;2023-06-24T09:42:53;19.30;99.90
41694;DHT22;27377;50.666;9.150;2023-06-24T09:45:24;19.30;99.90
41694;DHT22;27377;50.666;9.150;2023-06-24T09:47:50;19.40;99.90
41694;DHT22;27377;50.666;9.150;2023-06-24T09:50:16;19.40;99.90
41694;DHT22;27377;50.666;9.150;2023-06-24T09:52:44;19.40;99.90
41694;DHT22;27377;50.666;9.150;2023-06-24T09:55:11;19.50;99.90
41694;DHT22;27377;50.666;9.150;2023-06-24T09:57:46;19.50;99.90
41694;DHT22;27377;50.666;9.150;2023-06-24T10:00:18;19.60;99.90
41694;DHT22;27377;50.666;9.150;2023-06-24T10:02:45;19.60;99.90
41694;DHT22;27377;50.666;9.150;2023-06-24T10:05:12;19.60;99.90
41694;DHT22;27377;50.666;9.150;2023-06-24T10:07:40;19.80;99.90
41694;DHT22;27377;50.666;9.150;2023-06-24T10:10:06;19.80;99.90
41694;DHT22;27377;50.666;9.150;2023-06-24T10:12:34;19.80;99.90
41694;DHT22;27377;50.666;9.150;2023-06-24T10:15:00;19.80;99.90
41694;DHT22;27377;50.666;9.150;2023-06-24T10:17:26;19.90;99.90
41694;DHT22;27377;50.666;9.150;2023-06-24T10:19:53;19.80;99.90
41694;DHT22;27377;50.666;9.150;2023-06-24T10:22:25;19.90;99.90
41694;DHT22;27377;50.666;9.150;2023-06-24T10:24:52;20.00;99.90
41694;DHT22;27377;50.666;9.150;2023-06-24T10:27:21;20.00;99.90
41694;DHT22;27377;50.666;9.150;2023-06-24T10:29:52;20.10;99.90
41694;DHT22;27377;50.666;9.150;2023-06-24T10:32:22;20.20;99.90
41694;DHT22;27377;50.666;9.150;2023-06-24T10:34:57;20.20;99.90
41694;DHT22;27377;50.666;9.150;2023-06-24T10:37:24;20.20;99.90
41694;DHT22;27377;50.666;9.150;2023-06-24T10:44:53;20.20;99.90
41694;DHT22;27377;50.666;9.150;2023-06-24T10:47:19;20.30;99.90
41694;DHT22;27377;50.666;9.150;2023-06-24T10:49:45;20.30;99.90
41694;DHT22;27377;50.666;9.150;2023-06-24T10:52:12;20.30;99.90
41694;DHT22;27377;50.666;9.150;2023-06-24T10:54:39;20.50;99.90
41694;DHT22;27377;50.666;9.150;2023-06-24T10:57:05;20.50;99.90
41694;DHT22;27377;50.666;9.150;2023-06-24T10:59:34;20.50;99.90
41694;DHT22;27377;50.666;9.150;2023-06-24T11:02:00;20.50;99.90
41694;DHT22;27377;50.666;9.150;2023-06-24T11:04:26;20.50;99.90
41694;DHT22;27377;50.666;9.150;2023-06-24T11:07:05;20.60;99.90
41694;DHT22;27377;50.666;9.150;2023-06-24T11:09:30;20.60;99.90
41694;DHT22;27377;50.666;9.150;2023-06-24T11:11:56;20.60;99.90
41694;DHT22;27377;50.666;9.150;2023-06-24T11:14:22;20.60;99.90
41694;DHT22;27377;50.666;9.150;2023-06-24T11:16:48;20.70;99.90
41694;DHT22;27377;50.666;9.150;2023-06-24T11:19:13;20.70;99.90
41694;DHT22;27377;50.666;9.150;2023-06-24T11:21:39;20.80;99.90
41694;DHT22;27377;50.666;9.150;2023-06-24T11:24:07;20.70;99.90
41694;DHT22;27377;50.666;9.150;2023-06-24T11:26:33;20.80;99.90
41694;DHT22;27377;50.666;9.150;2023-06-24T11:28:58;20.80;99.90
41694;DHT22;27377;50.666;9.150;2023-06-24T11:31:25;20.90;99.90
41694;DHT22;27377;50.666;9.150;2023-06-24T11:33:51;20.90;99.90
41694;DHT22;27377;50.666;9.150;2023-06-24T11:36:21;21.00;99.90
41694;DHT22;27377;50.666;9.150;2023-06-24T11:38:47;21.10;99.90
41694;DHT22;27377;50.666;9.150;2023-06-24T11:41:14;21.10;99.90
41694;DHT22;27377;50.666;9.150;2023-06-24T11:43:46;21.10;99.90
41694;DHT22;27377;50.666;9.150;2023-06-24T11:46:29;21.00;99.90
41694;DHT22;27377;50.666;9.150;2023-06-24T11:49:07;21.00;99.90
41694;DHT22;27377;50.666;9.150;2023-06-24T11:51:34;21.00;99.90
41694;DHT22;27377;50.666;9.150;2023-06-24T11:54:03;21.00;99.90
41694;DHT22;27377;50.666;9.150;2023-06-24T11:56:38;21.00;99.90
41694;DHT22;27377;50.666;9.150;2023-06-24T11:59:05;21.10;99.90
41694;DHT22;27377;50.666;9.150;2023-06-24T12:01:34;21.10;99.90
41694;DHT22;27377;50.666;9.150;2023-06-24T12:04:15;21.20;99.90
41694;DHT22;27377;50.666;9.150;2023-06-24T12:06:43;21.20;99.90
41694;DHT22;27377;50.666;9.150;2023-06-24T12:09:09;21.20;99.90
41694;DHT22;27377;50.666;9.150;2023-06-24T12:11:35;21.30;99.90
41694;DHT22;27377;50.666;9.150;2023-06-24T12:14:01;21.40;99.90
41694;DHT22;27377;50.666;9.150;2023-06-24T12:16:27;21.40;99.90
41694;DHT22;27377;50.666;9.150;2023-06-24T12:18:53;21.50;99.90
41694;DHT22;27377;50.666;9.150;2023-06-24T12:21:19;21.50;99.90
41694;DHT22;27377;50.666;9.150;2023-06-24T12:23:45;21.50;99.90
41694;DHT22;27377;50.666;9.150;2023-06-24T12:26:11;21.50;99.90
41694;DHT22;27377;50.666;9.150;2023-06-24T12:28:36;21.40;99.90
41694;DHT22;27377;50.666;9.150;2023-06-24T12:31:02;21.40;99.90
41694;DHT22;27377;50.666;9.150;2023-06-24T12:33:31;21.40;99.90
41694;DHT22;27377;50.666;9.150;2023-06-24T12:35:58;21.40;99.90
41694;DHT22;27377;50.666;9.150;2023-06-24T12:38:24;21.50;99.90
41694;DHT22;27377;50.666;9.150;2023-06-24T12:40:49;21.50;99.90
41694;DHT22;27377;50.666;9.150;2023-06-24T12:43:15;21.50;99.90
41694;DHT22;27377;50.666;9.150;2023-06-24T12:45:41;21.60;99.90
41694;DHT22;27377;50.666;9.150;2023-06-24T12:48:11;21.60;99.90
41694;DHT22;27377;50.666;9.150;2023-06-24T12:50:37;21.60;99.90
41694;DHT22;27377;50.666;9.150;2023-06-24T12:53:03;21.60;99.90
41694;DHT22;27377;50.666;9.150;2023-06-24T12:55:29;21.60;99.90
41694;DHT22;27377;50.666;9.150;2023-06-24T12:57:58;21.60;99.90
41694;DHT22;27377;50.666;9.150;2023-06-24T13:00:24;21.60;99.90
41694;DHT22;27377;50.666;9.150;2023-06-24T13:02:50;21.70;99.90
41694;DHT22;27377;50.666;9.150;2023-06-24T13:05:17;21.70;99.90
41694;DHT22;27377;50.666;9.150;2023-06-24T13:07:46;21.80;99.90
41694;DHT22;27377;50.666;9.150;2023-06-24T13:10:11;21.80;99.90
41694;DHT22;27377;50.666;9.150;2023-06-24T13:12:40;21.90;99.90
41694;DHT22;27377;50.666;9.150;2023-06-24T13:15:06;21.90;99.90
41694;DHT22;27377;50.666;9.150;2023-06-24T13:17:32;22.00;99.90
41694;DHT22;27377;50.666;9.150;2023-06-24T13:19:58;22.00;99.90
41694;DHT22;27377;50.666;9.150;2023-06-24T13:22:24;22.00;99.90
41694;DHT22;27377;50.666;9.150;2023-06-24T13:24:50;22.00;99.90
41694;DHT22;27377;50.666;9.150;2023-06-24T13:27:20;22.00;99.90
41694;DHT22;27377;50.666;9.150;2023-06-24T13:29:48;22.00;99.90
41694;DHT22;27377;50.666;9.150;2023-06-24T13:32:14;22.10;99.90
41694;DHT22;27377;50.666;9.150;2023-06-24T13:34:44;22.10;99.90
41694;DHT22;27377;50.666;9.150;2023-06-24T13:37:09;22.10;99.90
41694;DHT22;27377;50.666;9.150;2023-06-24T13:39:35;22.10;99.90
41694;DHT22;27377;50.666;9.150;2023-06-24T13:42:00;22.20;99.90
41694;DHT22;27377;50.666;9.150;2023-06-24T13:44:26;22.30;99.90
41694;DHT22;27377;50.666;9.150;2023-06-24T13:46:51;22.30;99.90
41694;DHT22;27377;50.666;9.150;2023-06-24T13:49:19;22.40;99.90
41694;DHT22;27377;50.666;9.150;2023-06-24T13:51:44;22.40;98.70
41694;DHT22;27377;50.666;9.150;2023-06-24T13:54:10;22.40;99.60
41694;DHT22;27377;50.666;9.150;2023-06-24T13:56:35;22.50;99.70
41694;DHT22;27377;50.666;9.150;2023-06-24T13:59:01;22.40;98.30
41694;DHT22;27377;50.666;9.150;2023-06-24T14:01:26;22.40;97.90
41694;DHT22;27377;50.666;9.150;2023-06-24T14:03:55;22.40;98.60
41694;DHT22;27377;50.666;9.150;2023-06-24T14:06:22;22.40;99.10
41694;DHT22;27377;50.666;9.150;2023-06-24T14:08:48;22.50;98.80
41694;DHT22;27377;50.666;9.150;2023-06-24T14:11:14;22.50;99.00
41694;DHT22;27377;50.666;9.150;2023-06-24T14:13:41;22.50;99.10
41694;DHT22;27377;50.666;9.150;2023-06-24T14:16:07;22.40;99.00
41694;DHT22;27377;50.666;9.150;2023-06-24T14:18:33;22.40;99.10
41694;DHT22;27377;50.666;9.150;2023-06-24T14:21:00;22.30;99.20
41694;DHT22;27377;50.666;9.150;2023-06-24T14:23:27;22.30;99.30
41694;DHT22;27377;50.666;9.150;2023-06-24T14:25:53;22.20;99.50
41694;DHT22;27377;50.666;9.150;2023-06-24T14:28:18;22.20;99.70
41694;DHT22;27377;50.666;9.150;2023-06-24T14:30:44;22.20;99.70
41694;DHT22;27377;50.666;9.150;2023-06-24T14:33:11;22.20;99.70
41694;DHT22;27377;50.666;9.150;2023-06-24T14:35:37;22.10;99.80
41694;DHT22;27377;50.666;9.150;2023-06-24T14:38:03;22.10;99.80
41694;DHT22;27377;50.666;9.150;2023-06-24T14:40:28;22.10;99.90
41694;DHT22;27377;50.666;9.150;2023-06-24T14:42:54;22.10;99.90
41694;DHT22;27377;50.666;9.150;2023-06-24T14:45:19;22.10;99.90
41694;DHT22;27377;50.666;9.150;2023-06-24T14:47:45;22.10;99.90
41694;DHT22;27377;50.666;9.150;2023-06-24T14:50:10;22.10;99.90
41694;DHT22;27377;50.666;9.150;2023-06-24T14:52:36;22.00;99.90
41694;DHT22;27377;50.666;9.150;2023-06-24T14:55:01;22.00;99.90
41694;DHT22;27377;50.666;9.150;2023-06-24T14:57:27;22.10;99.90
41694;DHT22;27377;50.666;9.150;2023-06-24T14:59:53;22.10;99.70
41694;DHT22;27377;50.666;9.150;2023-06-24T15:02:18;22.10;99.90
41694;DHT22;27377;50.666;9.150;2023-06-24T15:04:44;22.10;99.90
41694;DHT22;27377;50.666;9.150;2023-06-24T15:07:09;22.10;99.90
41694;DHT22;27377;50.666;9.150;2023-06-24T15:09:35;22.10;99.90
41694;DHT22;27377;50.666;9.150;2023-06-24T15:12:01;22.20;99.90
41694;DHT22;27377;50.666;9.150;2023-06-24T15:14:27;22.20;99.90
41694;DHT22;27377;50.666;9.150;2023-06-24T15:16:53;22.20;99.90
41694;DHT22;27377;50.666;9.150;2023-06-24T15:19:19;22.20;99.90
41694;DHT22;27377;50.666;9.150;2023-06-24T15:21:45;22.20;99.80
41694;DHT22;27377;50.666;9.150;2023-06-24T15:24:10;22.20;99.70
41694;DHT22;27377;50.666;9.150;2023-06-24T15:26:36;22.20;99.60
41694;DHT22;27377;50.666;9.150;2023-06-24T15:29:02;22.20;99.80
41694;DHT22;27377;50.666;9.150;2023-06-24T15:31:28;22.20;99.10
41694;DHT22;27377;50.666;9.150;2023-06-24T15:33:57;22.20;99.20
41694;DHT22;27377;50.666;9.150;2023-06-24T15:36:23;22.30;99.20
41694;DHT22;27377;50.666;9.150;2023-06-24T15:38:52;22.40;98.70
41694;DHT22;27377;50.666;9.150;2023-06-24T15:41:18;22.40;99.10
41694;DHT22;27377;50.666;9.150;2023-06-24T15:43:44;22.40;99.20
41694;DHT22;27377;50.666;9.150;2023-06-24T15:46:10;22.50;99.20
41694;DHT22;27377;50.666;9.150;2023-06-24T15:48:35;22.50;99.30
41694;DHT22;27377;50.666;9.150;2023-06-24T15:51:02;22.50;99.30
41694;DHT22;27377;50.666;9.150;2023-06-24T15:53:28;22.50;99.00
41694;DHT22;27377;50.666;9.150;2023-06-24T15:55:54;22.60;98.90
41694;DHT22;27377;50.666;9.150;2023-06-24T15:58:20;22.70;98.50
41694;DHT22;27377;50.666;9.150;2023-06-24T16:00:45;22.70;98.80
41694;DHT22;27377;50.666;9.150;2023-06-24T16:03:11;22.80;98.80
41694;DHT22;27377;50.666;9.150;2023-06-24T16:05:36;22.80;98.90
41694;DHT22;27377;50.666;9.150;2023-06-24T16:08:02;22.90;99.00
41694;DHT22;27377;50.666;9.150;2023-06-24T16:10:28;22.90;98.90
41694;DHT22;27377;50.666;9.150;2023-06-24T16:12:53;22.80;98.80
41694;DHT22;27377;50.666;9.150;2023-06-24T16:15:20;22.80;98.90
41694;DHT22;27377;50.666;9.150;2023-06-24T16:17:46;22.80;98.80
41694;DHT22;27377;50.666;9.150;2023-06-24T16:20:11;22.90;98.70
41694;DHT22;27377;50.666;9.150;2023-06-24T16:22:44;22.90;98.80
41694;DHT22;27377;50.666;9.150;2023-06-24T16:25:10;23.00;98.80
41694;DHT22;27377;50.666;9.150;2023-06-24T16:27:35;23.10;98.90
41694;DHT22;27377;50.666;9.150;2023-06-24T16:30:01;23.20;98.80
41694;DHT22;27377;50.666;9.150;2023-06-24T16:32:27;23.20;98.20
41694;DHT22;27377;50.666;9.150;2023-06-24T16:34:52;23.20;98.50
41694;DHT22;27377;50.666;9.150;2023-06-24T16:37:18;23.20;97.00
41694;DHT22;27377;50.666;9.150;2023-06-24T16:39:43;23.30;96.70
41694;DHT22;27377;50.666;9.150;2023-06-24T16:42:09;23.30;95.80
41694;DHT22;27377;50.666;9.150;2023-06-24T16:44:34;23.40;96.60
41694;DHT22;27377;50.666;9.150;2023-06-24T16:47:03;23.40;97.20
41694;DHT22;27377;50.666;9.150;2023-06-24T16:49:29;23.40;97.60
41694;DHT22;27377;50.666;9.150;2023-06-24T16:51:55;23.50;97.80
41694;DHT22;27377;50.666;9.150;2023-06-24T16:54:20;23.50;97.40
41694;DHT22;27377;50.666;9.150;2023-06-24T16:56:47;23.50;96.90
41694;DHT22;27377;50.666;9.150;2023-06-24T16:59:13;23.60;96.90
41694;DHT22;27377;50.666;9.150;2023-06-24T17:01:38;23.60;97.30
41694;DHT22;27377;50.666;9.150;2023-06-24T17:04:04;23.60;97.20
41694;DHT22;27377;50.666;9.150;2023-06-24T17:06:29;23.60;97.20
41694;DHT22;27377;50.666;9.150;2023-06-24T17:08:55;23.70;97.20
41694;DHT22;27377;50.666;9.150;2023-06-24T17:11:22;23.70;97.20
41694;DHT22;27377;50.666;9.150;2023-06-24T17:13:47;23.70;97.40
41694;DHT22;27377;50.666;9.150;2023-06-24T17:16:13;23.70;97.30
41694;DHT22;27377;50.666;9.150;2023-06-24T17:18:39;23.70;97.20
41694;DHT22;27377;50.666;9.150;2023-06-24T17:21:04;23.70;97.40
41694;DHT22;27377;50.666;9.150;2023-06-24T17:23:30;23.70;97.40
41694;DHT22;27377;50.666;9.150;2023-06-24T17:25:55;23.70;97.10
41694;DHT22;27377;50.666;9.150;2023-06-24T17:28:22;23.70;97.10
41694;DHT22;27377;50.666;9.150;2023-06-24T17:30:47;23.70;97.30
41694;DHT22;27377;50.666;9.150;2023-06-24T17:33:13;23.70;97.30
41694;DHT22;27377;50.666;9.150;2023-06-24T17:35:38;23.70;97.10
41694;DHT22;27377;50.666;9.150;2023-06-24T17:38:04;23.60;97.10
41694;DHT22;27377;50.666;9.150;2023-06-24T17:40:29;23.50;97.00
41694;DHT22;27377;50.666;9.150;2023-06-24T17:42:55;23.50;97.20
41694;DHT22;27377;50.666;9.150;2023-06-24T17:45:22;23.50;97.20
41694;DHT22;27377;50.666;9.150;2023-06-24T17:47:48;23.50;97.30
41694;DHT22;27377;50.666;9.150;2023-06-24T17:50:13;23.50;97.10
41694;DHT22;27377;50.666;9.150;2023-06-24T17:52:39;23.50;97.10
41694;DHT22;27377;50.666;9.150;2023-06-24T17:55:05;23.40;97.20
41694;DHT22;27377;50.666;9.150;2023-06-24T17:57:30;23.40;97.30
41694;DHT22;27377;50.666;9.150;2023-06-24T17:59:56;23.40;97.40
41694;DHT22;27377;50.666;9.150;2023-06-24T18:02:21;23.30;97.40
41694;DHT22;27377;50.666;9.150;2023-06-24T18:04:47;23.30;97.60
41694;DHT22;27377;50.666;9.150;2023-06-24T18:07:13;23.30;97.70
41694;DHT22;27377;50.666;9.150;2023-06-24T18:09:38;23.30;97.80
41694;DHT22;27377;50.666;9.150;2023-06-24T18:12:04;23.20;97.90
41694;DHT22;27377;50.666;9.150;2023-06-24T18:14:30;23.20;98.00
41694;DHT22;27377;50.666;9.150;2023-06-24T18:16:55;23.20;98.20
41694;DHT22;27377;50.666;9.150;2023-06-24T18:19:21;23.10;98.50
41694;DHT22;27377;50.666;9.150;2023-06-24T18:21:46;23.10;98.70
41694;DHT22;27377;50.666;9.150;2023-06-24T18:24:12;23.00;98.90
41694;DHT22;27377;50.666;9.150;2023-06-24T18:26:38;23.00;99.10
41694;DHT22;27377;50.666;9.150;2023-06-24T18:29:07;23.00;99.30
41694;DHT22;27377;50.666;9.150;2023-06-24T18:31:33;22.90;99.70
41694;DHT22;27377;50.666;9.150;2023-06-24T18:33:59;22.90;99.70
41694;DHT22;27377;50.666;9.150;2023-06-24T18:36:25;22.90;99.90
41694;DHT22;27377;50.666;9.150;2023-06-24T18:38:50;22.80;99.90
41694;DHT22;27377;50.666;9.150;2023-06-24T18:41:16;22.80;99.90
41694;DHT22;27377;50.666;9.150;2023-06-24T18:43:44;22.70;99.90
41694;DHT22;27377;50.666;9.150;2023-06-24T18:46:10;22.60;99.90
41694;DHT22;27377;50.666;9.150;2023-06-24T18:48:37;22.50;99.90
41694;DHT22;27377;50.666;9.150;2023-06-24T18:51:02;22.40;99.90
41694;DHT22;27377;50.666;9.150;2023-06-24T18:53:28;22.40;99.90
41694;DHT22;27377;50.666;9.150;2023-06-24T18:55:53;22.30;99.90
41694;DHT22;27377;50.666;9.150;2023-06-24T18:58:19;22.20;99.90
41694;DHT22;27377;50.666;9.150;2023-06-24T19:00:44;22.10;99.90
41694;DHT22;27377;50.666;9.150;2023-06-24T19:03:11;22.00;99.90
41694;DHT22;27377;50.666;9.150;2023-06-24T19:05:40;21.90;99.90
41694;DHT22;27377;50.666;9.150;2023-06-24T19:08:06;21.80;99.90
41694;DHT22;27377;50.666;9.150;2023-06-24T19:10:32;21.70;99.90
41694;DHT22;27377;50.666;9.150;2023-06-24T19:12:58;21.60;99.90
41694;DHT22;27377;50.666;9.150;2023-06-24T19:15:24;21.50;99.90
41694;DHT22;27377;50.666;9.150;2023-06-24T19:17:49;21.40;99.90
41694;DHT22;27377;50.666;9.150;2023-06-24T19:20:18;21.30;99.90
41694;DHT22;27377;50.666;9.150;2023-06-24T19:22:44;21.20;99.90
41694;DHT22;27377;50.666;9.150;2023-06-24T19:25:10;21.10;99.90
41694;DHT22;27377;50.666;9.150;2023-06-24T19:27:36;20.90;99.90
41694;DHT22;27377;50.666;9.150;2023-06-24T19:30:01;20.90;99.90
41694;DHT22;27377;50.666;9.150;2023-06-24T19:32:28;20.80;99.90
41694;DHT22;27377;50.666;9.150;2023-06-24T19:34:53;20.70;99.90
41694;DHT22;27377;50.666;9.150;2023-06-24T19:37:19;20.60;99.90
41694;DHT22;27377;50.666;9.150;2023-06-24T19:39:44;20.60;99.90
41694;DHT22;27377;50.666;9.150;2023-06-24T19:42:10;20.50;99.90
41694;DHT22;27377;50.666;9.150;2023-06-24T19:44:36;20.50;99.90
41694;DHT22;27377;50.666;9.150;2023-06-24T19:47:01;20.40;99.90
41694;DHT22;27377;50.666;9.150;2023-06-24T19:49:27;20.30;99.90
41694;DHT22;27377;50.666;9.150;2023-06-24T19:51:53;20.30;99.90
41694;DHT22;27377;50.666;9.150;2023-06-24T19:54:19;20.20;99.90
41694;DHT22;27377;50.666;9.150;2023-06-24T19:56:45;20.20;99.90
41694;DHT22;27377;50.666;9.150;2023-06-24T19:59:11;20.10;99.90
41694;DHT22;27377;50.666;9.150;2023-06-24T20:01:36;20.10;99.90
41694;DHT22;27377;50.666;9.150;2023-06-24T20:04:03;20.00;99.90
41694;DHT22;27377;50.666;9.150;2023-06-24T20:06:29;20.00;99.90
41694;DHT22;27377;50.666;9.150;2023-06-24T20:08:54;20.00;99.90
41694;DHT22;27377;50.666;9.150;2023-06-24T20:11:20;19.90;99.90
41694;DHT22;27377;50.666;9.150;2023-06-24T20:13:46;19.90;99.90